createdAt,value
2023-04-08T00:00:03.104Z,100
2023-04-08T00:01:02.129Z,100
2023-04-08T00:02:02.023Z,100
2023-04-08T00:03:02.083Z,100
2023-04-08T00:04:02.467Z,100
2023-04-08T00:05:02.576Z,100
2023-04-08T00:06:02.477Z,100
2023-04-08T00:07:02.392Z,100
2023-04-08T00:08:02.445Z,100
2023-04-08T00:09:02.291Z,100
2023-04-08T00:10:02.376Z,100
2023-04-08T00:11:02.241Z,100
2023-04-08T00:12:02.238Z,100
2023-04-08T00:13:02.216Z,100
2023-04-08T00:14:02.123Z,100
2023-04-08T00:15:02.152Z,100
2023-04-08T00:16:02.051Z,100
2023-04-08T00:18:01.853Z,100
2023-04-08T00:19:01.630Z,100
2023-04-08T00:20:01.663Z,100
2023-04-08T00:21:01.483Z,100
2023-04-08T00:22:02.477Z,100
2023-04-08T00:23:02.348Z,100
2023-04-08T00:24:02.418Z,100
2023-04-08T00:25:02.277Z,100
2023-04-08T00:26:02.303Z,100
2023-04-08T00:27:02.168Z,100
2023-04-08T00:28:02.247Z,100
2023-04-08T00:29:02.104Z,100
2023-04-08T00:30:02.088Z,100
2023-04-08T00:31:02.088Z,100
2023-04-08T00:32:02.248Z,100
2023-04-08T00:33:02.251Z,100
2023-04-08T00:34:02.151Z,100
2023-04-08T00:35:02.007Z,100
2023-04-08T00:36:02.030Z,100
2023-04-08T00:37:02.054Z,100
2023-04-08T00:38:01.914Z,100
2023-04-08T00:39:01.993Z,100
2023-04-08T00:40:01.809Z,100
2023-04-08T00:41:01.861Z,100
2023-04-08T00:42:01.686Z,100
2023-04-08T00:43:01.696Z,100
2023-04-08T00:44:01.504Z,100
2023-04-08T00:45:01.564Z,100
2023-04-08T00:46:02.569Z,100
2023-04-08T00:48:01.626Z,100
2023-04-08T00:49:02.534Z,100
2023-04-08T00:50:02.360Z,100
2023-04-08T00:51:02.423Z,100
2023-04-08T00:52:02.345Z,100
2023-04-08T00:53:02.352Z,100
2023-04-08T00:54:02.231Z,100
2023-04-08T00:55:02.371Z,100
2023-04-08T00:56:02.296Z,100
2023-04-08T00:57:02.213Z,100
2023-04-08T00:58:02.256Z,100
2023-04-08T00:59:02.101Z,100
2023-04-08T01:00:02.856Z,100
2023-04-08T01:01:01.731Z,100
2023-04-08T01:02:02.123Z,100
2023-04-08T01:03:02.267Z,100
2023-04-08T01:04:02.336Z,100
2023-04-08T01:05:02.147Z,100
2023-04-08T01:06:02.225Z,100
2023-04-08T01:07:02.272Z,100
2023-04-08T01:08:02.104Z,100
2023-04-08T01:09:02.151Z,100
2023-04-08T01:10:02.010Z,100
2023-04-08T01:11:01.965Z,100
2023-04-08T01:12:02.024Z,100
2023-04-08T01:13:01.871Z,100
2023-04-08T01:14:01.901Z,100
2023-04-08T01:15:01.938Z,100
2023-04-08T01:16:01.810Z,100
2023-04-08T01:17:01.701Z,100
2023-04-08T01:18:01.864Z,100
2023-04-08T01:19:01.618Z,100
2023-04-08T01:20:01.748Z,100
2023-04-08T01:21:01.550Z,100
2023-04-08T01:22:01.528Z,100
2023-04-08T01:23:02.493Z,100
2023-04-08T01:24:02.393Z,100
2023-04-08T01:25:02.414Z,100
2023-04-08T01:26:02.249Z,100
2023-04-08T01:27:02.312Z,100
2023-04-08T01:28:02.235Z,100
2023-04-08T01:29:02.293Z,100
2023-04-08T01:30:02.269Z,100
2023-04-08T01:31:02.314Z,100
2023-04-08T01:32:02.308Z,100
2023-04-08T01:33:02.514Z,100
2023-04-08T01:34:02.325Z,100
2023-04-08T01:35:02.317Z,100
2023-04-08T01:36:02.313Z,100
2023-04-08T01:37:02.295Z,100
2023-04-08T01:38:02.219Z,100
2023-04-08T01:39:02.094Z,100
2023-04-08T01:40:02.171Z,100
2023-04-08T01:41:01.984Z,100
2023-04-08T01:42:02.050Z,100
2023-04-08T01:43:01.970Z,100
2023-04-08T01:44:01.801Z,100
2023-04-08T01:45:01.849Z,100
2023-04-08T01:46:01.801Z,100
2023-04-08T01:48:01.715Z,100
2023-04-08T01:49:01.540Z,100
2023-04-08T01:50:02.540Z,100
2023-04-08T01:51:02.430Z,100
2023-04-08T01:52:02.451Z,100
2023-04-08T01:53:02.412Z,100
2023-04-08T01:54:02.395Z,100
2023-04-08T01:55:02.298Z,100
2023-04-08T01:56:02.372Z,100
2023-04-08T01:57:02.234Z,100
2023-04-08T01:58:02.199Z,100
2023-04-08T01:59:02.255Z,100
2023-04-08T02:00:02.216Z,100
2023-04-08T02:01:02.201Z,100
2023-04-08T02:03:02.391Z,100
2023-04-08T02:04:01.724Z,100
2023-04-08T02:05:01.540Z,100
2023-04-08T02:06:01.578Z,100
2023-04-08T02:07:02.532Z,100
2023-04-08T02:08:02.434Z,100
2023-04-08T02:09:02.437Z,100
2023-04-08T02:10:02.306Z,100
2023-04-08T02:11:02.367Z,100
2023-04-08T02:12:02.256Z,100
2023-04-08T02:13:02.341Z,100
2023-04-08T02:14:02.203Z,100
2023-04-08T02:15:02.265Z,100
2023-04-08T02:16:02.347Z,100
2023-04-08T02:17:02.346Z,100
2023-04-08T02:18:02.393Z,100
2023-04-08T02:19:02.257Z,100
2023-04-08T02:20:02.329Z,100
2023-04-08T02:21:02.273Z,100
2023-04-08T02:22:02.275Z,100
2023-04-08T02:23:02.240Z,100
2023-04-08T02:24:04.205Z,100
2023-04-08T02:25:01.812Z,100
2023-04-08T02:26:01.777Z,100
2023-04-08T02:27:01.625Z,100
2023-04-08T02:28:01.639Z,100
2023-04-08T02:29:01.500Z,100
2023-04-08T02:30:01.502Z,100
2023-04-08T02:31:02.514Z,100
2023-04-08T02:32:02.412Z,100
2023-04-08T02:33:02.534Z,100
2023-04-08T02:34:02.287Z,100
2023-04-08T02:35:02.374Z,100
2023-04-08T02:36:02.300Z,100
2023-04-08T02:37:02.257Z,100
2023-04-08T02:38:02.211Z,100
2023-04-08T02:39:02.076Z,100
2023-04-08T02:40:02.102Z,100
2023-04-08T02:41:02.050Z,100
2023-04-08T02:42:01.892Z,100
2023-04-08T02:43:01.953Z,100
2023-04-08T02:44:01.759Z,100
2023-04-08T02:45:01.768Z,100
2023-04-08T02:46:01.679Z,100
2023-04-08T02:47:01.842Z,100
2023-04-08T02:48:01.916Z,100
2023-04-08T02:49:01.719Z,100
2023-04-08T02:50:01.852Z,100
2023-04-08T02:51:01.723Z,100
2023-04-08T02:52:01.646Z,100
2023-04-08T02:53:01.483Z,100
2023-04-08T02:54:02.564Z,100
2023-04-08T02:55:02.474Z,100
2023-04-08T02:56:02.459Z,100
2023-04-08T02:57:02.348Z,100
2023-04-08T02:58:02.411Z,100
2023-04-08T02:59:02.371Z,100
2023-04-08T03:00:02.373Z,100
2023-04-08T03:01:02.263Z,100
2023-04-08T03:02:02.450Z,100
2023-04-08T03:03:02.657Z,100
2023-04-08T03:04:01.698Z,100
2023-04-08T03:05:01.656Z,100
2023-04-08T03:06:01.511Z,100
2023-04-08T03:07:02.543Z,100
2023-04-08T03:08:02.418Z,100
2023-04-08T03:09:02.454Z,100
2023-04-08T03:10:02.295Z,100
2023-04-08T03:11:02.343Z,100
2023-04-08T03:12:02.196Z,100
2023-04-08T03:13:02.237Z,100
2023-04-08T03:14:02.277Z,100
2023-04-08T03:15:02.118Z,100
2023-04-08T03:16:02.103Z,100
2023-04-08T03:17:02.158Z,100
2023-04-08T03:18:02.231Z,100
2023-04-08T03:19:02.202Z,100
2023-04-08T03:20:02.134Z,100
2023-04-08T03:21:02.006Z,100
2023-04-08T03:22:02.124Z,100
2023-04-08T03:23:01.935Z,100
2023-04-08T03:24:02.012Z,100
2023-04-08T03:25:01.941Z,100
2023-04-08T03:26:01.802Z,100
2023-04-08T03:27:01.778Z,100
2023-04-08T03:28:01.734Z,100
2023-04-08T03:29:01.858Z,100
2023-04-08T03:30:02.209Z,100
2023-04-08T03:31:01.992Z,100
2023-04-08T03:33:01.777Z,100
2023-04-08T03:34:01.501Z,100
2023-04-08T03:35:02.532Z,100
2023-04-08T03:36:02.476Z,100
2023-04-08T03:37:02.519Z,100
2023-04-08T03:38:02.369Z,100
2023-04-08T03:39:02.423Z,100
2023-04-08T03:40:02.253Z,100
2023-04-08T03:41:02.281Z,100
2023-04-08T03:42:02.221Z,100
2023-04-08T03:43:02.162Z,100
2023-04-08T03:44:02.105Z,100
2023-04-08T03:45:01.955Z,100
2023-04-08T03:46:02.011Z,100
2023-04-08T03:47:02.053Z,100
2023-04-08T03:48:02.155Z,100
2023-04-08T03:49:01.897Z,100
2023-04-08T03:50:01.896Z,100
2023-04-08T03:51:01.738Z,100
2023-04-08T03:52:01.724Z,100
2023-04-08T03:53:01.651Z,100
2023-04-08T03:54:01.698Z,100
2023-04-08T03:55:01.571Z,100
2023-04-08T03:56:01.574Z,100
2023-04-08T03:57:02.527Z,100
2023-04-08T03:58:02.417Z,100
2023-04-08T03:59:02.521Z,100
2023-04-08T04:00:03.092Z,100
2023-04-08T04:01:02.019Z,100
2023-04-08T04:02:02.395Z,100
2023-04-08T04:03:02.555Z,100
2023-04-08T04:04:02.819Z,100
2023-04-08T04:05:02.324Z,100
2023-04-08T04:06:02.250Z,100
2023-04-08T04:07:02.067Z,100
2023-04-08T04:08:02.113Z,100
2023-04-08T04:09:01.979Z,100
2023-04-08T04:10:01.892Z,100
2023-04-08T04:11:01.880Z,100
2023-04-08T04:12:01.773Z,100
2023-04-08T04:13:01.790Z,100
2023-04-08T04:14:01.657Z,100
2023-04-08T04:15:01.713Z,100
2023-04-08T04:16:01.682Z,100
2023-04-08T04:17:01.622Z,100
2023-04-08T04:18:01.700Z,100
2023-04-08T04:19:01.587Z,100
2023-04-08T04:20:02.523Z,100
2023-04-08T04:21:02.378Z,100
2023-04-08T04:22:02.440Z,100
2023-04-08T04:23:02.332Z,100
2023-04-08T04:24:02.424Z,100
2023-04-08T04:25:02.322Z,100
2023-04-08T04:26:02.321Z,100
2023-04-08T04:27:02.288Z,100
2023-04-08T04:28:02.245Z,100
2023-04-08T04:29:02.216Z,100
2023-04-08T04:30:02.076Z,100
2023-04-08T04:31:02.300Z,100
2023-04-08T04:33:02.052Z,100
2023-04-08T04:34:01.848Z,100
2023-04-08T04:35:01.848Z,100
2023-04-08T04:36:01.932Z,100
2023-04-08T04:37:02.034Z,100
2023-04-08T04:38:02.095Z,100
2023-04-08T04:39:01.905Z,100
2023-04-08T04:40:01.969Z,100
2023-04-08T04:41:01.911Z,100
2023-04-08T04:42:01.874Z,100
2023-04-08T04:43:02.289Z,100
2023-04-08T04:44:02.009Z,100
2023-04-08T04:45:01.947Z,100
2023-04-08T04:46:01.839Z,100
2023-04-08T04:47:01.901Z,100
2023-04-08T04:48:01.744Z,100
2023-04-08T04:49:01.478Z,100
2023-04-08T04:50:01.503Z,100
2023-04-08T04:51:02.455Z,100
2023-04-08T04:52:02.339Z,100
2023-04-08T04:53:02.405Z,100
2023-04-08T04:54:02.226Z,100
2023-04-08T04:55:02.353Z,100
2023-04-08T04:56:02.649Z,100
2023-04-08T04:57:02.353Z,100
2023-04-08T04:58:02.372Z,100
2023-04-08T04:59:02.238Z,100
2023-04-08T05:00:05.863Z,100
2023-04-08T05:01:01.591Z,100
2023-04-08T05:02:02.118Z,100
2023-04-08T05:03:02.244Z,100
2023-04-08T05:04:02.102Z,100
2023-04-08T05:05:02.179Z,100
2023-04-08T05:06:02.039Z,100
2023-04-08T05:07:01.906Z,100
2023-04-08T05:08:01.951Z,100
2023-04-08T05:09:01.757Z,100
2023-04-08T05:10:01.973Z,100
2023-04-08T05:11:01.719Z,100
2023-04-08T05:12:01.678Z,100
2023-04-08T05:13:01.522Z,100
2023-04-08T05:14:01.614Z,100
2023-04-08T05:15:02.545Z,100
2023-04-08T05:16:02.501Z,100
2023-04-08T05:17:02.380Z,100
2023-04-08T05:18:02.461Z,100
2023-04-08T05:19:02.283Z,100
2023-04-08T05:20:02.400Z,100
2023-04-08T05:21:02.198Z,100
2023-04-08T05:22:02.190Z,100
2023-04-08T05:23:02.102Z,100
2023-04-08T05:24:02.044Z,100
2023-04-08T05:25:02.080Z,100
2023-04-08T05:26:01.901Z,100
2023-04-08T05:27:01.919Z,100
2023-04-08T05:28:01.853Z,100
2023-04-08T05:29:01.845Z,100
2023-04-08T05:30:01.703Z,100
2023-04-08T05:31:01.784Z,100
2023-04-08T05:33:02.639Z,100
2023-04-08T05:34:02.419Z,100
2023-04-08T05:35:02.502Z,100
2023-04-08T05:36:02.371Z,100
2023-04-08T05:37:02.324Z,100
2023-04-08T05:38:02.206Z,100
2023-04-08T05:39:03.627Z,100
2023-04-08T05:40:02.418Z,100
2023-04-08T05:41:02.227Z,100
2023-04-08T05:42:02.266Z,100
2023-04-08T05:43:02.239Z,100
2023-04-08T05:44:02.100Z,100
2023-04-08T05:45:02.168Z,100
2023-04-08T05:46:02.008Z,100
2023-04-08T05:47:01.813Z,100
2023-04-08T05:48:01.771Z,100
2023-04-08T05:49:01.497Z,100
2023-04-08T05:50:01.517Z,100
2023-04-08T05:51:02.476Z,100
2023-04-08T05:52:02.315Z,100
2023-04-08T05:53:02.361Z,100
2023-04-08T05:54:02.203Z,100
2023-04-08T05:55:02.284Z,100
2023-04-08T05:56:02.429Z,100
2023-04-08T05:57:02.069Z,100
2023-04-08T05:58:02.109Z,100
2023-04-08T05:59:01.983Z,100
2023-04-08T06:00:02.739Z,100
2023-04-08T06:01:01.790Z,100
2023-04-08T06:02:01.865Z,100
2023-04-08T06:03:02.299Z,100
2023-04-08T06:04:02.904Z,100
2023-04-08T06:05:02.146Z,100
2023-04-08T06:06:02.053Z,100
2023-04-08T06:07:01.911Z,100
2023-04-08T06:08:01.953Z,100
2023-04-08T06:09:01.808Z,100
2023-04-08T06:10:01.801Z,100
2023-04-08T06:11:01.664Z,100
2023-04-08T06:12:01.714Z,100
2023-04-08T06:13:01.504Z,100
2023-04-08T06:14:01.587Z,100
2023-04-08T06:15:02.501Z,100
2023-04-08T06:16:02.380Z,100
2023-04-08T06:17:02.529Z,100
2023-04-08T06:18:02.503Z,100
2023-04-08T06:19:02.258Z,100
2023-04-08T06:20:02.362Z,100
2023-04-08T06:21:02.152Z,100
2023-04-08T06:22:02.210Z,100
2023-04-08T06:23:02.290Z,100
2023-04-08T06:24:01.949Z,100
2023-04-08T06:25:01.946Z,100
2023-04-08T06:26:01.848Z,100
2023-04-08T06:27:01.981Z,100
2023-04-08T06:28:01.790Z,100
2023-04-08T06:29:01.764Z,100
2023-04-08T06:30:01.649Z,100
2023-04-08T06:31:01.653Z,100
2023-04-08T06:32:02.468Z,100
2023-04-08T06:33:02.323Z,100
2023-04-08T06:34:02.312Z,100
2023-04-08T06:35:02.240Z,100
2023-04-08T06:36:02.101Z,100
2023-04-08T06:37:02.114Z,100
2023-04-08T06:38:01.975Z,100
2023-04-08T06:39:01.956Z,100
2023-04-08T06:40:02.016Z,100
2023-04-08T06:41:01.792Z,100
2023-04-08T06:42:02.066Z,100
2023-04-08T06:43:01.762Z,100
2023-04-08T06:44:01.787Z,100
2023-04-08T06:45:01.692Z,100
2023-04-08T06:46:01.859Z,100
2023-04-08T06:48:02.610Z,100
2023-04-08T06:49:02.352Z,100
2023-04-08T06:50:02.407Z,100
2023-04-08T06:51:02.319Z,100
2023-04-08T06:52:02.366Z,100
2023-04-08T06:53:02.196Z,100
2023-04-08T06:54:02.247Z,100
2023-04-08T06:55:02.039Z,100
2023-04-08T06:56:02.026Z,100
2023-04-08T06:57:02.071Z,100
2023-04-08T06:58:01.891Z,100
2023-04-08T06:59:01.869Z,100
2023-04-08T07:00:03.167Z,100
2023-04-08T07:01:02.077Z,100
2023-04-08T07:02:01.845Z,100
2023-04-08T07:03:02.164Z,100
2023-04-08T07:04:02.365Z,100
2023-04-08T07:05:02.405Z,100
2023-04-08T07:06:02.410Z,100
2023-04-08T07:07:02.293Z,100
2023-04-08T07:08:02.305Z,100
2023-04-08T07:09:02.155Z,100
2023-04-08T07:10:02.242Z,100
2023-04-08T07:11:02.039Z,100
2023-04-08T07:12:01.986Z,100
2023-04-08T07:13:02.070Z,100
2023-04-08T07:14:01.963Z,100
2023-04-08T07:15:01.853Z,100
2023-04-08T07:16:01.807Z,100
2023-04-08T07:17:01.762Z,100
2023-04-08T07:18:02.000Z,100
2023-04-08T07:19:01.703Z,100
2023-04-08T07:20:01.784Z,100
2023-04-08T07:21:01.612Z,100
2023-04-08T07:22:01.610Z,100
2023-04-08T07:23:01.493Z,100
2023-04-08T07:24:02.514Z,100
2023-04-08T07:25:02.399Z,100
2023-04-08T07:26:02.429Z,100
2023-04-08T07:27:02.270Z,100
2023-04-08T07:28:02.322Z,100
2023-04-08T07:29:02.261Z,100
2023-04-08T07:30:02.279Z,100
2023-04-08T07:31:02.265Z,100
2023-04-08T07:32:02.175Z,100
2023-04-08T07:33:02.296Z,100
2023-04-08T07:34:02.020Z,100
2023-04-08T07:35:01.995Z,100
2023-04-08T07:36:01.979Z,100
2023-04-08T07:37:01.732Z,100
2023-04-08T07:38:01.898Z,100
2023-04-08T07:39:01.647Z,100
2023-04-08T07:40:01.676Z,100
2023-04-08T07:41:01.543Z,100
2023-04-08T07:42:01.599Z,100
2023-04-08T07:43:02.530Z,100
2023-04-08T07:44:02.405Z,100
2023-04-08T07:45:02.446Z,100
2023-04-08T07:46:02.421Z,100
2023-04-08T07:47:02.378Z,100
2023-04-08T07:48:02.506Z,100
2023-04-08T07:49:02.223Z,100
2023-04-08T07:50:02.230Z,100
2023-04-08T07:51:11.270Z,100
2023-04-08T07:52:02.355Z,100
2023-04-08T07:53:02.456Z,100
2023-04-08T07:54:02.243Z,100
2023-04-08T07:55:02.592Z,100
2023-04-08T07:56:02.555Z,100
2023-04-08T07:57:01.648Z,100
2023-04-08T07:58:01.795Z,100
2023-04-08T07:59:01.572Z,100
2023-04-08T08:00:01.576Z,100
2023-04-08T08:01:01.469Z,100
2023-04-08T08:02:02.485Z,100
2023-04-08T08:03:02.524Z,100
2023-04-08T08:04:02.712Z,100
2023-04-08T08:05:02.019Z,100
2023-04-08T08:06:01.755Z,100
2023-04-08T08:07:01.901Z,100
2023-04-08T08:08:01.653Z,100
2023-04-08T08:09:01.654Z,100
2023-04-08T08:10:01.505Z,100
2023-04-08T08:11:01.541Z,100
2023-04-08T08:12:02.493Z,100
2023-04-08T08:13:02.416Z,100
2023-04-08T08:14:02.430Z,100
2023-04-08T08:15:02.348Z,100
2023-04-08T08:16:02.470Z,100
2023-04-08T08:17:02.309Z,100
2023-04-08T08:18:02.454Z,100
2023-04-08T08:19:02.236Z,100
2023-04-08T08:20:02.337Z,100
2023-04-08T08:21:02.275Z,100
2023-04-08T08:22:02.167Z,100
2023-04-08T08:23:02.124Z,100
2023-04-08T08:24:02.030Z,100
2023-04-08T08:25:02.030Z,100
2023-04-08T08:26:01.867Z,100
2023-04-08T08:27:01.922Z,100
2023-04-08T08:28:01.739Z,100
2023-04-08T08:29:01.768Z,100
2023-04-08T08:30:01.612Z,100
2023-04-08T08:31:01.658Z,100
2023-04-08T08:32:01.554Z,100
2023-04-08T08:33:01.628Z,100
2023-04-08T08:34:01.458Z,100
2023-04-08T08:35:02.503Z,100
2023-04-08T08:36:02.485Z,100
2023-04-08T08:37:02.374Z,100
2023-04-08T08:38:02.288Z,100
2023-04-08T08:39:02.321Z,100
2023-04-08T08:40:02.232Z,100
2023-04-08T08:41:02.281Z,100
2023-04-08T08:42:02.235Z,100
2023-04-08T08:43:02.103Z,100
2023-04-08T08:44:02.194Z,100
2023-04-08T08:45:02.054Z,100
2023-04-08T08:46:02.046Z,100
2023-04-08T08:47:02.220Z,100
2023-04-08T08:48:02.282Z,100
2023-04-08T08:49:02.073Z,100
2023-04-08T08:50:02.128Z,100
2023-04-08T08:51:02.045Z,100
2023-04-08T08:52:01.947Z,100
2023-04-08T08:53:01.897Z,100
2023-04-08T08:54:01.948Z,100
2023-04-08T08:55:04.451Z,100
2023-04-08T08:56:18.877Z,100
2023-04-08T08:57:01.882Z,100
2023-04-08T08:58:01.859Z,100
2023-04-08T08:59:01.753Z,100
2023-04-08T09:00:02.312Z,100
2023-04-08T09:01:01.987Z,100
2023-04-08T09:02:02.556Z,100
2023-04-08T09:03:03.032Z,100
2023-04-08T09:04:02.251Z,100
2023-04-08T09:05:02.629Z,100
2023-04-08T09:06:01.658Z,100
2023-04-08T09:07:01.689Z,100
2023-04-08T09:08:01.498Z,100
2023-04-08T09:09:01.555Z,100
2023-04-08T09:10:01.418Z,100
2023-04-08T09:11:02.518Z,100
2023-04-08T09:12:02.356Z,100
2023-04-08T09:13:02.407Z,100
2023-04-08T09:14:02.278Z,100
2023-04-08T09:15:02.239Z,100
2023-04-08T09:16:02.367Z,100
2023-04-08T09:17:02.143Z,100
2023-04-08T09:18:02.410Z,100
2023-04-08T09:19:02.286Z,100
2023-04-08T09:20:02.155Z,100
2023-04-08T09:21:02.384Z,100
2023-04-08T09:22:02.068Z,100
2023-04-08T09:23:01.995Z,100
2023-04-08T09:24:02.058Z,100
2023-04-08T09:25:01.883Z,100
2023-04-08T09:26:01.904Z,100
2023-04-08T09:27:01.814Z,100
2023-04-08T09:28:01.727Z,100
2023-04-08T09:29:24.809Z,100
2023-04-08T09:30:02.054Z,100
2023-04-08T09:31:02.051Z,100
2023-04-08T09:33:01.740Z,100
2023-04-08T09:34:01.559Z,99
2023-04-08T09:35:01.538Z,98
2023-04-08T09:36:01.552Z,98
2023-04-08T09:37:02.482Z,93
2023-04-08T09:38:02.321Z,90
2023-04-08T09:39:02.396Z,86
2023-04-08T09:40:02.239Z,85
2023-04-08T09:41:02.318Z,86
2023-04-08T09:42:02.344Z,85
2023-04-08T09:43:02.136Z,80
2023-04-08T09:44:02.178Z,88
2023-04-08T09:45:02.069Z,95
2023-04-08T09:46:02.023Z,90
2023-04-08T09:47:02.045Z,83
2023-04-08T09:48:02.201Z,79
2023-04-08T09:49:01.980Z,83
2023-04-08T09:50:01.914Z,81
2023-04-08T09:51:01.903Z,84
2023-04-08T09:52:01.828Z,85
2023-04-08T09:53:01.874Z,84
2023-04-08T09:54:01.701Z,78
2023-04-08T09:55:01.746Z,86
2023-04-08T09:56:01.558Z,79
2023-04-08T09:57:01.575Z,82
2023-04-08T09:58:02.486Z,79
2023-04-08T09:59:02.353Z,76
2023-04-08T10:00:02.448Z,78
2023-04-08T10:01:02.361Z,83
2023-04-08T10:02:02.491Z,78
2023-04-08T10:03:02.746Z,75
2023-04-08T10:04:01.902Z,79
2023-04-08T10:05:02.111Z,81
2023-04-08T10:06:02.019Z,100
2023-04-08T10:07:01.976Z,76
2023-04-08T10:08:02.046Z,76
2023-04-08T10:09:01.897Z,72
2023-04-08T10:10:01.976Z,73
2023-04-08T10:11:01.794Z,72
2023-04-08T10:12:01.840Z,75
2023-04-08T10:13:01.618Z,69
2023-04-08T10:14:01.690Z,72
2023-04-08T10:15:01.554Z,72
2023-04-08T10:16:01.561Z,68
2023-04-08T10:17:02.294Z,67
2023-04-08T10:18:02.293Z,71
2023-04-08T10:19:02.247Z,70
2023-04-08T10:20:02.104Z,70
2023-04-08T10:21:01.941Z,70
2023-04-08T10:22:01.971Z,71
2023-04-08T10:23:01.870Z,78
2023-04-08T10:24:01.877Z,83
2023-04-08T10:25:01.720Z,88
2023-04-08T10:26:01.784Z,86
2023-04-08T10:27:01.564Z,82
2023-04-08T10:28:01.595Z,91
2023-04-08T10:29:01.481Z,87
2023-04-08T10:30:02.521Z,91
2023-04-08T10:31:02.393Z,88
2023-04-08T10:32:02.254Z,83
2023-04-08T10:33:02.353Z,84
2023-04-08T10:34:02.079Z,89
2023-04-08T10:35:02.045Z,84
2023-04-08T10:36:02.167Z,86
2023-04-08T10:37:01.905Z,93
2023-04-08T10:38:01.926Z,86
2023-04-08T10:39:01.912Z,99
2023-04-08T10:40:01.868Z,100
2023-04-08T10:41:01.656Z,100
2023-04-08T10:42:01.677Z,100
2023-04-08T10:43:01.512Z,100
2023-04-08T10:44:01.594Z,100
2023-04-08T10:45:02.460Z,100
2023-04-08T10:46:02.398Z,91
2023-04-08T10:47:02.402Z,92
2023-04-08T10:48:02.477Z,75
2023-04-08T10:49:02.328Z,75
2023-04-08T10:50:02.382Z,77
2023-04-08T10:51:02.246Z,71
2023-04-08T10:52:02.288Z,75
2023-04-08T10:53:02.310Z,88
2023-04-08T10:54:02.072Z,74
2023-04-08T10:55:02.056Z,73
2023-04-08T10:56:01.955Z,68
2023-04-08T10:57:01.948Z,78
2023-04-08T10:58:02.019Z,81
2023-04-08T10:59:01.836Z,75
2023-04-08T11:00:03.300Z,82
2023-04-08T11:01:02.181Z,80
2023-04-08T11:02:02.419Z,79
2023-04-08T11:03:02.098Z,76
2023-04-08T11:04:02.248Z,78
2023-04-08T11:05:02.141Z,95
2023-04-08T11:06:02.171Z,75
2023-04-08T11:07:02.026Z,76
2023-04-08T11:08:02.030Z,74
2023-04-08T11:09:02.038Z,100
2023-04-08T11:10:01.894Z,81
2023-04-08T11:11:01.915Z,82
2023-04-08T11:12:01.796Z,79
2023-04-08T11:13:01.890Z,78
2023-04-08T11:14:01.730Z,81
2023-04-08T11:15:01.718Z,76
2023-04-08T11:16:01.604Z,81
2023-04-08T11:17:02.012Z,86
2023-04-08T11:18:02.169Z,81
2023-04-08T11:19:01.931Z,90
2023-04-08T11:20:01.961Z,89
2023-04-08T11:21:01.815Z,97
2023-04-08T11:22:01.874Z,100
2023-04-08T11:23:01.690Z,82
2023-04-08T11:24:01.690Z,100
2023-04-08T11:25:01.532Z,88
2023-04-08T11:26:01.564Z,86
2023-04-08T11:27:02.473Z,100
2023-04-08T11:28:02.299Z,90
2023-04-08T11:29:02.385Z,100
2023-04-08T11:30:02.237Z,84
2023-04-08T11:31:02.379Z,100
2023-04-08T11:33:01.693Z,99
2023-04-08T11:34:02.510Z,100
2023-04-08T11:35:02.374Z,83
2023-04-08T11:36:02.552Z,86
2023-04-08T11:37:02.388Z,82
2023-04-08T11:38:02.283Z,88
2023-04-08T11:39:02.188Z,75
2023-04-08T11:40:02.212Z,77
2023-04-08T11:41:02.050Z,74
2023-04-08T11:42:02.025Z,79
2023-04-08T11:43:02.080Z,78
2023-04-08T11:44:01.947Z,78
2023-04-08T11:45:01.989Z,92
2023-04-08T11:46:01.861Z,79
2023-04-08T11:47:01.820Z,78
2023-04-08T11:48:05.107Z,82
2023-04-08T11:49:01.805Z,80
2023-04-08T11:50:01.923Z,81
2023-04-08T11:51:01.672Z,81
2023-04-08T11:52:01.693Z,83
2023-04-08T11:53:01.560Z,82
2023-04-08T11:54:01.556Z,85
2023-04-08T11:55:02.471Z,86
2023-04-08T11:56:02.314Z,87
2023-04-08T11:57:02.318Z,90
2023-04-08T11:58:02.169Z,88
2023-04-08T11:59:02.209Z,90
2023-04-08T12:00:02.608Z,87
2023-04-08T12:01:01.519Z,91
2023-04-08T12:02:02.049Z,91
2023-04-08T12:03:02.239Z,91
2023-04-08T12:04:02.461Z,92
2023-04-08T12:05:01.729Z,88
2023-04-08T12:06:01.501Z,92
2023-04-08T12:07:01.492Z,90
2023-04-08T12:08:02.515Z,94
2023-04-08T12:09:02.350Z,95
2023-04-08T12:10:02.455Z,91
2023-04-08T12:11:19.832Z,93
2023-04-08T12:12:01.966Z,93
2023-04-08T12:13:01.983Z,94
2023-04-08T12:14:01.768Z,93
2023-04-08T12:15:01.777Z,97
2023-04-08T12:16:01.858Z,96
2023-04-08T12:18:02.677Z,100
2023-04-08T12:19:01.453Z,100
2023-04-08T12:20:02.504Z,100
2023-04-08T12:21:02.451Z,100
2023-04-08T12:22:02.361Z,100
2023-04-08T12:23:02.297Z,100
2023-04-08T12:24:02.352Z,100
2023-04-08T12:25:02.181Z,100
2023-04-08T12:26:02.165Z,100
2023-04-08T12:27:02.157Z,100
2023-04-08T12:28:01.988Z,100
2023-04-08T12:29:02.159Z,100
2023-04-08T12:30:01.936Z,100
2023-04-08T12:31:01.840Z,100
2023-04-08T12:32:01.731Z,100
2023-04-08T12:33:01.717Z,100
2023-04-08T12:34:01.463Z,100
2023-04-08T12:35:02.481Z,100
2023-04-08T12:36:02.408Z,100
2023-04-08T12:37:02.392Z,100
2023-04-08T12:38:02.358Z,100
2023-04-08T12:39:02.297Z,100
2023-04-08T12:40:02.298Z,100
2023-04-08T12:41:02.120Z,100
2023-04-08T12:42:02.182Z,100
2023-04-08T12:43:02.075Z,100
2023-04-08T12:44:02.014Z,100
2023-04-08T12:45:02.076Z,100
2023-04-08T12:46:01.918Z,100
2023-04-08T12:47:02.482Z,100
2023-04-08T12:48:02.435Z,100
2023-04-08T12:49:05.934Z,100
2023-04-08T12:50:02.361Z,100
2023-04-08T12:51:02.439Z,100
2023-04-08T12:52:02.229Z,100
2023-04-08T12:53:02.256Z,100
2023-04-08T12:54:02.311Z,100
2023-04-08T12:55:02.105Z,100
2023-04-08T12:56:02.106Z,100
2023-04-08T12:57:01.907Z,100
2023-04-08T12:58:01.989Z,100
2023-04-08T12:59:01.925Z,100
2023-04-08T13:00:02.493Z,100
2023-04-08T13:01:02.409Z,100
2023-04-08T13:03:02.092Z,100
2023-04-08T13:04:02.045Z,100
2023-04-08T13:05:02.206Z,100
2023-04-08T13:06:02.134Z,100
2023-04-08T13:07:01.974Z,100
2023-04-08T13:08:01.941Z,100
2023-04-08T13:09:01.964Z,100
2023-04-08T13:10:01.847Z,100
2023-04-08T13:11:01.978Z,100
2023-04-08T13:12:01.684Z,100
2023-04-08T13:13:01.734Z,100
2023-04-08T13:14:01.540Z,100
2023-04-08T13:15:01.540Z,100
2023-04-08T13:16:02.560Z,100
2023-04-08T13:17:02.375Z,100
2023-04-08T13:18:02.537Z,100
2023-04-08T13:19:02.249Z,100
2023-04-08T13:20:02.295Z,100
2023-04-08T13:21:02.242Z,100
2023-04-08T13:22:02.193Z,100
2023-04-08T13:23:02.115Z,100
2023-04-08T13:24:01.994Z,100
2023-04-08T13:25:01.884Z,100
2023-04-08T13:26:01.898Z,100
2023-04-08T13:27:01.777Z,100
2023-04-08T13:28:01.807Z,100
2023-04-08T13:29:02.748Z,100
2023-04-08T13:30:01.943Z,100
2023-04-08T13:31:01.934Z,100
2023-04-08T13:32:01.899Z,100
2023-04-08T13:33:01.978Z,100
2023-04-08T13:34:01.869Z,100
2023-04-08T13:35:01.874Z,100
2023-04-08T13:36:01.819Z,100
2023-04-08T13:37:01.747Z,100
2023-04-08T13:38:01.625Z,100
2023-04-08T13:39:01.677Z,100
2023-04-08T13:40:01.456Z,100
2023-04-08T13:41:02.480Z,100
2023-04-08T13:42:02.342Z,100
2023-04-08T13:43:02.415Z,100
2023-04-08T13:44:02.336Z,100
2023-04-08T13:45:02.260Z,100
2023-04-08T13:46:02.436Z,100
2023-04-08T13:47:02.029Z,100
2023-04-08T13:48:02.133Z,100
2023-04-08T13:49:01.918Z,100
2023-04-08T13:50:01.973Z,100
2023-04-08T13:51:01.875Z,100
2023-04-08T13:52:01.896Z,100
2023-04-08T13:53:01.674Z,100
2023-04-08T13:54:01.647Z,100
2023-04-08T13:55:01.535Z,100
2023-04-08T13:56:01.511Z,100
2023-04-08T13:57:02.587Z,100
2023-04-08T13:58:11.379Z,100
2023-04-08T13:59:02.128Z,100
2023-04-08T14:00:02.478Z,100
2023-04-08T14:01:02.469Z,100
2023-04-08T14:03:02.587Z,100
2023-04-08T14:04:02.454Z,100